Terminal Aerodrome Forecast
Issued by NWS Sioux Falls, SD

Home | Current Version | Previous Version | Graphics & Text | Print | Product List | Glossary On
Versions: 1 2 3 4 5 6 7 8 9 10 11 12 13 14 15 16 17 18 19 20 21 22 23 24 25 26
640
FTUS43 KFSD 101120
TAFSUX
TAF
KSUX 101120Z 1012/1112 10005KT 4SM -SN OVC050
     FM101400 11009KT 2SM -SN OVC025
     FM101600 11010KT 1SM -SN OVC015
     FM101900 13013KT 3SM -SN OVC025
     FM102100 13014KT P6SM OVC035
     FM110300 12010KT 4SM -SN BR OVC035
     FM110900 13006KT P6SM OVC020=

USA.gov is the U.S. government's official web portal to all federal, state and local government web resources and services.